sensor_id;sensor_type;location;lat;lon;timestamp;pressure;altitude;pressure_sealevel;temperature;humidity
5879;BME280;2965;42.640;23.370;2023-02-22T05:02:01;94473.56;;;3.57;100.00
5879;BME280;2965;42.640;23.370;2023-02-22T05:04:26;94475.41;;;3.74;100.00
5879;BME280;2965;42.640;23.370;2023-02-22T05:06:52;94483.78;;;3.96;100.00
5879;BME280;2965;42.640;23.370;2023-02-22T05:09:18;94485.94;;;4.00;100.00
5879;BME280;2965;42.640;23.370;2023-02-22T05:11:44;94486.16;;;4.07;100.00
5879;BME280;2965;42.640;23.370;2023-02-22T05:14:10;94487.31;;;4.22;100.00
5879;BME280;2965;42.640;23.370;2023-02-22T05:16:36;94494.75;;;4.35;100.00
5879;BME280;2965;42.640;23.370;2023-02-22T05:19:02;94495.03;;;4.32;100.00
5879;BME280;2965;42.640;23.370;2023-02-22T05:21:27;94499.66;;;4.28;100.00
5879;BME280;2965;42.640;23.370;2023-02-22T05:23:52;94497.50;;;4.24;100.00
5879;BME280;2965;42.640;23.370;2023-02-22T05:26:18;94502.16;;;4.20;100.00
5879;BME280;2965;42.640;23.370;2023-02-22T05:28:44;94499.50;;;4.12;100.00
5879;BME280;2965;42.640;23.370;2023-02-22T05:31:09;94513.84;;;4.24;100.00
5879;BME280;2965;42.640;23.370;2023-02-22T05:33:35;94521.44;;;4.36;100.00
5879;BME280;2965;42.640;23.370;2023-02-22T05:36:00;94516.16;;;4.27;100.00
5879;BME280;2965;42.640;23.370;2023-02-22T05:38:26;94524.03;;;4.08;100.00
5879;BME280;2965;42.640;23.370;2023-02-22T05:40:51;94528.25;;;4.09;100.00
5879;BME280;2965;42.640;23.370;2023-02-22T05:43:17;94536.78;;;4.19;100.00
5879;BME280;2965;42.640;23.370;2023-02-22T05:45:42;94535.38;;;4.35;100.00
5879;BME280;2965;42.640;23.370;2023-02-22T05:48:07;94529.88;;;4.38;100.00
5879;BME280;2965;42.640;23.370;2023-02-22T05:50:33;94538.50;;;4.28;100.00
5879;BME280;2965;42.640;23.370;2023-02-22T05:52:59;94537.56;;;4.29;100.00
5879;BME280;2965;42.640;23.370;2023-02-22T05:55:24;94540.69;;;4.51;100.00
5879;BME280;2965;42.640;23.370;2023-02-22T05:57:51;94544.44;;;4.66;100.00
5879;BME280;2965;42.640;23.370;2023-02-22T06:00:23;94549.03;;;4.72;100.00
5879;BME280;2965;42.640;23.370;2023-02-22T06:02:57;94552.97;;;4.76;100.00
5879;BME280;2965;42.640;23.370;2023-02-22T06:05:23;94540.25;;;4.83;100.00
5879;BME280;2965;42.640;23.370;2023-02-22T06:07:49;94543.84;;;4.90;100.00
5879;BME280;2965;42.640;23.370;2023-02-22T06:10:15;94543.72;;;4.92;100.00
5879;BME280;2965;42.640;23.370;2023-02-22T06:12:40;94551.63;;;5.08;100.00
5879;BME280;2965;42.640;23.370;2023-02-22T06:15:06;94548.13;;;5.17;100.00
5879;BME280;2965;42.640;23.370;2023-02-22T06:17:31;94551.41;;;5.19;100.00
5879;BME280;2965;42.640;23.370;2023-02-22T06:19:57;94547.56;;;5.23;100.00
5879;BME280;2965;42.640;23.370;2023-02-22T06:22:22;94546.34;;;5.36;100.00
5879;BME280;2965;42.640;23.370;2023-02-22T06:24:47;94546.41;;;5.44;100.00
5879;BME280;2965;42.640;23.370;2023-02-22T06:27:13;94555.53;;;5.48;100.00
5879;BME280;2965;42.640;23.370;2023-02-22T06:29:38;94543.94;;;5.60;100.00
5879;BME280;2965;42.640;23.370;2023-02-22T06:32:08;94539.78;;;5.67;98.69
5879;BME280;2965;42.640;23.370;2023-02-22T06:34:33;94535.63;;;5.82;97.42
5879;BME280;2965;42.640;23.370;2023-02-22T06:36:59;94537.03;;;5.95;96.89
5879;BME280;2965;42.640;23.370;2023-02-22T06:39:24;94543.94;;;6.12;96.32
5879;BME280;2965;42.640;23.370;2023-02-22T06:41:50;94544.34;;;6.25;95.95
5879;BME280;2965;42.640;23.370;2023-02-22T06:44:15;94541.78;;;6.34;96.83
5879;BME280;2965;42.640;23.370;2023-02-22T06:46:46;94538.56;;;6.48;96.30
5879;BME280;2965;42.640;23.370;2023-02-22T06:49:13;94546.19;;;6.49;96.00
5879;BME280;2965;42.640;23.370;2023-02-22T06:51:39;94543.81;;;6.64;96.10
5879;BME280;2965;42.640;23.370;2023-02-22T06:54:04;94540.06;;;6.58;96.91
5879;BME280;2965;42.640;23.370;2023-02-22T06:56:30;94548.97;;;6.48;98.17
5879;BME280;2965;42.640;23.370;2023-02-22T06:58:55;94545.69;;;6.46;98.59
5879;BME280;2965;42.640;23.370;2023-02-22T07:01:21;94539.88;;;6.52;98.22
5879;BME280;2965;42.640;23.370;2023-02-22T07:03:48;94541.19;;;6.56;97.47
5879;BME280;2965;42.640;23.370;2023-02-22T07:06:14;94549.66;;;6.66;96.78
5879;BME280;2965;42.640;23.370;2023-02-22T07:08:39;94549.38;;;6.77;94.79
5879;BME280;2965;42.640;23.370;2023-02-22T07:11:04;94549.03;;;6.80;94.13
5879;BME280;2965;42.640;23.370;2023-02-22T07:13:30;94549.53;;;6.84;93.39
5879;BME280;2965;42.640;23.370;2023-02-22T07:15:56;94545.50;;;6.98;92.43
5879;BME280;2965;42.640;23.370;2023-02-22T07:18:22;94548.16;;;7.22;93.13
5879;BME280;2965;42.640;23.370;2023-02-22T07:20:50;94543.59;;;7.32;91.96
5879;BME280;2965;42.640;23.370;2023-02-22T07:25:45;94546.34;;;7.47;86.84
5879;BME280;2965;42.640;23.370;2023-02-22T07:28:11;94560.16;;;7.56;86.12
5879;BME280;2965;42.640;23.370;2023-02-22T07:30:37;94556.94;;;7.70;85.84
5879;BME280;2965;42.640;23.370;2023-02-22T07:33:05;94553.28;;;7.88;86.17
5879;BME280;2965;42.640;23.370;2023-02-22T07:35:34;94554.59;;;8.00;84.67
5879;BME280;2965;42.640;23.370;2023-02-22T07:38:04;94553.72;;;8.24;84.94
5879;BME280;2965;42.640;23.370;2023-02-22T07:40:30;94543.59;;;8.37;83.79
5879;BME280;2965;42.640;23.370;2023-02-22T07:45:42;94535.94;;;8.98;86.56
5879;BME280;2965;42.640;23.370;2023-02-22T07:48:08;94531.63;;;9.13;79.52
5879;BME280;2965;42.640;23.370;2023-02-22T07:50:34;94538.72;;;9.65;88.77
5879;BME280;2965;42.640;23.370;2023-02-22T07:53:02;94537.03;;;9.72;77.00
5879;BME280;2965;42.640;23.370;2023-02-22T07:55:30;94540.91;;;9.76;79.43
5879;BME280;2965;42.640;23.370;2023-02-22T07:57:58;94534.34;;;9.95;76.44
5879;BME280;2965;42.640;23.370;2023-02-22T08:00:29;94532.66;;;10.17;80.91
5879;BME280;2965;42.640;23.370;2023-02-22T08:02:56;94527.19;;;10.42;79.37
5879;BME280;2965;42.640;23.370;2023-02-22T08:05:24;94528.91;;;10.34;73.00
5879;BME280;2965;42.640;23.370;2023-02-22T08:07:50;94529.59;;;10.58;76.53
5879;BME280;2965;42.640;23.370;2023-02-22T08:10:17;94525.66;;;10.83;74.60
5879;BME280;2965;42.640;23.370;2023-02-22T08:12:43;94525.09;;;11.03;74.46
5879;BME280;2965;42.640;23.370;2023-02-22T08:15:15;94521.59;;;10.96;70.78
5879;BME280;2965;42.640;23.370;2023-02-22T08:17:40;94526.44;;;10.99;74.33
5879;BME280;2965;42.640;23.370;2023-02-22T08:20:06;94524.53;;;11.29;75.29
5879;BME280;2965;42.640;23.370;2023-02-22T08:22:31;94523.22;;;11.40;69.63
5879;BME280;2965;42.640;23.370;2023-02-22T08:24:57;94519.91;;;11.52;70.02
5879;BME280;2965;42.640;23.370;2023-02-22T08:27:24;94526.31;;;11.28;68.83
5879;BME280;2965;42.640;23.370;2023-02-22T08:29:50;94517.88;;;11.26;70.08
5879;BME280;2965;42.640;23.370;2023-02-22T08:32:15;94519.47;;;11.27;69.20
5879;BME280;2965;42.640;23.370;2023-02-22T08:34:41;94517.09;;;11.32;69.06
5879;BME280;2965;42.640;23.370;2023-02-22T08:37:07;94518.47;;;11.50;68.47
5879;BME280;2965;42.640;23.370;2023-02-22T08:39:32;94517.41;;;11.66;67.36
5879;BME280;2965;42.640;23.370;2023-02-22T08:41:58;94513.84;;;11.73;69.42
5879;BME280;2965;42.640;23.370;2023-02-22T08:44:23;94507.94;;;11.93;66.13
5879;BME280;2965;42.640;23.370;2023-02-22T08:46:48;94503.66;;;12.13;70.26
5879;BME280;2965;42.640;23.370;2023-02-22T08:49:16;94507.03;;;12.42;67.80
5879;BME280;2965;42.640;23.370;2023-02-22T08:51:41;94503.44;;;12.56;67.85
5879;BME280;2965;42.640;23.370;2023-02-22T08:54:06;94509.66;;;12.90;68.29
5879;BME280;2965;42.640;23.370;2023-02-22T08:56:32;94501.19;;;12.94;68.87
5879;BME280;2965;42.640;23.370;2023-02-22T08:58:57;94500.88;;;13.30;65.40
5879;BME280;2965;42.640;23.370;2023-02-22T09:01:23;94498.44;;;13.22;61.30
5879;BME280;2965;42.640;23.370;2023-02-22T09:03:49;94498.84;;;13.46;63.95
5879;BME280;2965;42.640;23.370;2023-02-22T09:06:14;94493.41;;;13.54;61.09
5879;BME280;2965;42.640;23.370;2023-02-22T09:08:39;94496.03;;;13.80;63.34
5879;BME280;2965;42.640;23.370;2023-02-22T09:11:05;94487.16;;;13.81;60.08
5879;BME280;2965;42.640;23.370;2023-02-22T09:13:31;94491.16;;;14.10;60.10
5879;BME280;2965;42.640;23.370;2023-02-22T09:15:56;94496.81;;;14.07;59.14
5879;BME280;2965;42.640;23.370;2023-02-22T09:18:22;94487.91;;;14.15;58.35
5879;BME280;2965;42.640;23.370;2023-02-22T09:20:47;94486.63;;;14.37;58.32
5879;BME280;2965;42.640;23.370;2023-02-22T09:23:12;94484.59;;;14.53;57.45
5879;BME280;2965;42.640;23.370;2023-02-22T09:25:38;94488.97;;;14.79;57.07
5879;BME280;2965;42.640;23.370;2023-02-22T09:28:05;94485.81;;;15.02;59.89
5879;BME280;2965;42.640;23.370;2023-02-22T09:30:34;94481.00;;;14.85;54.77
5879;BME280;2965;42.640;23.370;2023-02-22T09:33:11;94486.75;;;15.14;55.01
5879;BME280;2965;42.640;23.370;2023-02-22T09:35:37;94477.66;;;15.42;54.18
5879;BME280;2965;42.640;23.370;2023-02-22T09:38:07;94484.28;;;15.19;52.04
5879;BME280;2965;42.640;23.370;2023-02-22T09:40:35;94481.91;;;15.11;52.99
5879;BME280;2965;42.640;23.370;2023-02-22T09:46:06;94474.66;;;15.63;53.47
5879;BME280;2965;42.640;23.370;2023-02-22T09:48:53;94469.91;;;15.97;52.02
5879;BME280;2965;42.640;23.370;2023-02-22T09:51:24;94476.16;;;16.02;52.69
5879;BME280;2965;42.640;23.370;2023-02-22T09:53:55;94475.22;;;16.15;50.11
5879;BME280;2965;42.640;23.370;2023-02-22T09:56:25;94465.63;;;16.21;49.34
5879;BME280;2965;42.640;23.370;2023-02-22T09:58:56;94458.66;;;16.26;48.72
5879;BME280;2965;42.640;23.370;2023-02-22T10:04:38;94457.50;;;16.22;49.27
5879;BME280;2965;42.640;23.370;2023-02-22T10:07:16;94452.66;;;16.19;48.38
5879;BME280;2965;42.640;23.370;2023-02-22T10:09:47;94452.38;;;16.27;47.84
5879;BME280;2965;42.640;23.370;2023-02-22T10:12:22;94450.22;;;16.54;47.26
5879;BME280;2965;42.640;23.370;2023-02-22T10:25:19;94423.22;;;16.71;46.86
5879;BME280;2965;42.640;23.370;2023-02-22T10:32:53;94407.97;;;17.03;46.81
5879;BME280;2965;42.640;23.370;2023-02-22T10:35:27;94412.31;;;17.27;47.81
5879;BME280;2965;42.640;23.370;2023-02-22T10:38:10;94399.44;;;17.43;45.01
5879;BME280;2965;42.640;23.370;2023-02-22T10:40:37;94396.03;;;17.54;46.32
5879;BME280;2965;42.640;23.370;2023-02-22T10:43:04;94386.38;;;17.95;46.85
5879;BME280;2965;42.640;23.370;2023-02-22T10:45:32;94392.91;;;18.15;45.35
5879;BME280;2965;42.640;23.370;2023-02-22T10:48:09;94390.19;;;17.75;44.49
5879;BME280;2965;42.640;23.370;2023-02-22T10:50:42;94377.63;;;17.82;44.80
5879;BME280;2965;42.640;23.370;2023-02-22T10:53:09;94383.25;;;18.09;44.29
5879;BME280;2965;42.640;23.370;2023-02-22T10:55:35;94377.13;;;18.21;43.95
5879;BME280;2965;42.640;23.370;2023-02-22T10:58:21;94369.53;;;18.24;44.14
5879;BME280;2965;42.640;23.370;2023-02-22T11:00:46;94361.81;;;18.63;44.76
5879;BME280;2965;42.640;23.370;2023-02-22T11:03:23;94362.47;;;18.82;42.90
5879;BME280;2965;42.640;23.370;2023-02-22T11:05:49;94364.00;;;18.95;41.65
5879;BME280;2965;42.640;23.370;2023-02-22T11:08:18;94362.69;;;18.80;42.69
5879;BME280;2965;42.640;23.370;2023-02-22T11:10:51;94363.47;;;18.81;43.13
5879;BME280;2965;42.640;23.370;2023-02-22T11:15:54;94354.56;;;19.32;41.85
5879;BME280;2965;42.640;23.370;2023-02-22T11:18:30;94351.50;;;19.40;41.69
5879;BME280;2965;42.640;23.370;2023-02-22T11:21:02;94345.53;;;19.16;39.73
5879;BME280;2965;42.640;23.370;2023-02-22T11:23:28;94343.94;;;19.32;39.34
5879;BME280;2965;42.640;23.370;2023-02-22T11:26:12;94337.69;;;19.72;39.44
5879;BME280;2965;42.640;23.370;2023-02-22T11:28:45;94344.78;;;19.67;38.23
5879;BME280;2965;42.640;23.370;2023-02-22T11:31:22;94344.94;;;19.99;38.27
5879;BME280;2965;42.640;23.370;2023-02-22T11:33:52;94329.91;;;19.87;38.98
5879;BME280;2965;42.640;23.370;2023-02-22T11:39:03;94331.09;;;19.24;39.11
5879;BME280;2965;42.640;23.370;2023-02-22T11:41:33;94318.56;;;19.53;38.62
5879;BME280;2965;42.640;23.370;2023-02-22T11:44:19;94320.28;;;19.81;39.22
5879;BME280;2965;42.640;23.370;2023-02-22T11:46:45;94321.00;;;20.37;38.58
5879;BME280;2965;42.640;23.370;2023-02-22T11:49:12;94316.97;;;20.13;38.36
5879;BME280;2965;42.640;23.370;2023-02-22T12:20:59;94292.47;;;20.50;36.51
5879;BME280;2965;42.640;23.370;2023-02-22T12:23:46;94287.31;;;20.65;36.11
5879;BME280;2965;42.640;23.370;2023-02-22T12:26:21;94280.72;;;20.46;36.73
5879;BME280;2965;42.640;23.370;2023-02-22T12:31:27;94272.13;;;20.92;35.99
5879;BME280;2965;42.640;23.370;2023-02-22T12:39:52;94268.41;;;20.94;35.48
5879;BME280;2965;42.640;23.370;2023-02-22T12:42:28;94268.16;;;21.27;35.82
5879;BME280;2965;42.640;23.370;2023-02-22T12:45:12;94274.22;;;21.55;34.63
5879;BME280;2965;42.640;23.370;2023-02-22T12:47:56;94278.38;;;21.40;36.26
5879;BME280;2965;42.640;23.370;2023-02-22T12:50:28;94259.16;;;21.76;35.00
5879;BME280;2965;42.640;23.370;2023-02-22T12:53:06;94260.28;;;21.42;34.20
5879;BME280;2965;42.640;23.370;2023-02-22T12:55:42;94264.66;;;21.59;34.36
5879;BME280;2965;42.640;23.370;2023-02-22T12:58:38;94259.47;;;21.05;34.93
5879;BME280;2965;42.640;23.370;2023-02-22T13:01:17;94255.25;;;21.09;34.86
5879;BME280;2965;42.640;23.370;2023-02-22T13:03:44;94259.56;;;21.15;34.72
5879;BME280;2965;42.640;23.370;2023-02-22T13:20:06;94254.94;;;20.68;34.54
5879;BME280;2965;42.640;23.370;2023-02-22T13:22:51;94257.34;;;21.34;33.95
5879;BME280;2965;42.640;23.370;2023-02-22T13:30:41;94247.50;;;21.34;33.96
5879;BME280;2965;42.640;23.370;2023-02-22T13:33:19;94237.97;;;21.44;33.85
5879;BME280;2965;42.640;23.370;2023-02-22T13:35:56;94233.22;;;21.51;33.84
5879;BME280;2965;42.640;23.370;2023-02-22T13:56:47;94225.47;;;21.44;34.72
5879;BME280;2965;42.640;23.370;2023-02-22T14:01:52;94231.72;;;21.70;33.59
5879;BME280;2965;42.640;23.370;2023-02-22T14:04:31;94227.97;;;22.19;32.76
5879;BME280;2965;42.640;23.370;2023-02-22T14:06:58;94224.97;;;22.10;32.90
5879;BME280;2965;42.640;23.370;2023-02-22T14:09:51;94227.72;;;22.35;34.05
5879;BME280;2965;42.640;23.370;2023-02-22T14:22:41;94239.16;;;21.68;33.40
5879;BME280;2965;42.640;23.370;2023-02-22T14:25:39;94233.63;;;21.32;34.36
5879;BME280;2965;42.640;23.370;2023-02-22T14:31:15;94230.34;;;21.62;34.28
5879;BME280;2965;42.640;23.370;2023-02-22T14:36:20;94234.41;;;21.70;33.90
5879;BME280;2965;42.640;23.370;2023-02-22T14:38:48;94223.22;;;21.73;34.65
5879;BME280;2965;42.640;23.370;2023-02-22T14:41:17;94221.03;;;21.60;34.16
5879;BME280;2965;42.640;23.370;2023-02-22T14:43:42;94220.72;;;21.14;34.95
5879;BME280;2965;42.640;23.370;2023-02-22T14:46:12;94223.25;;;21.31;34.74
5879;BME280;2965;42.640;23.370;2023-02-22T14:48:42;94222.91;;;21.22;34.98
5879;BME280;2965;42.640;23.370;2023-02-22T14:53:50;94224.94;;;21.10;34.74
5879;BME280;2965;42.640;23.370;2023-02-22T14:56:22;94220.28;;;21.27;34.31
5879;BME280;2965;42.640;23.370;2023-02-22T15:01:36;94220.72;;;21.14;34.74
5879;BME280;2965;42.640;23.370;2023-02-22T15:06:48;94227.75;;;20.61;35.47
5879;BME280;2965;42.640;23.370;2023-02-22T15:11:40;94216.66;;;20.15;35.98
5879;BME280;2965;42.640;23.370;2023-02-22T15:14:17;94222.00;;;19.93;36.74
5879;BME280;2965;42.640;23.370;2023-02-22T15:16:48;94219.88;;;19.34;37.27
5879;BME280;2965;42.640;23.370;2023-02-22T15:19:16;94215.38;;;18.79;38.51
5879;BME280;2965;42.640;23.370;2023-02-22T15:21:49;94219.72;;;18.40;38.23
5879;BME280;2965;42.640;23.370;2023-02-22T15:24:21;94219.38;;;18.20;38.77
5879;BME280;2965;42.640;23.370;2023-02-22T15:26:48;94221.28;;;17.96;39.97
5879;BME280;2965;42.640;23.370;2023-02-22T15:29:20;94221.47;;;17.77;40.31
5879;BME280;2965;42.640;23.370;2023-02-22T15:31:51;94218.38;;;17.57;40.04
5879;BME280;2965;42.640;23.370;2023-02-22T15:34:27;94226.31;;;17.57;40.16
5879;BME280;2965;42.640;23.370;2023-02-22T15:36:55;94220.84;;;17.87;41.70
5879;BME280;2965;42.640;23.370;2023-02-22T15:39:30;94227.53;;;18.18;40.63
5879;BME280;2965;42.640;23.370;2023-02-22T15:42:04;94226.94;;;18.45;45.10
5879;BME280;2965;42.640;23.370;2023-02-22T15:44:39;94227.19;;;18.14;40.29
5879;BME280;2965;42.640;23.370;2023-02-22T15:47:06;94232.78;;;18.30;41.02
5879;BME280;2965;42.640;23.370;2023-02-22T15:49:31;94232.44;;;18.26;45.76
5879;BME280;2965;42.640;23.370;2023-02-22T15:52:22;94232.00;;;18.92;43.55
5879;BME280;2965;42.640;23.370;2023-02-22T15:54:50;94238.22;;;19.19;45.14
5879;BME280;2965;42.640;23.370;2023-02-22T15:57:18;94237.53;;;19.46;42.93
5879;BME280;2965;42.640;23.370;2023-02-22T15:59:51;94233.75;;;18.86;45.58
5879;BME280;2965;42.640;23.370;2023-02-22T16:02:30;94231.81;;;18.81;46.69
5879;BME280;2965;42.640;23.370;2023-02-22T16:05:04;94244.81;;;19.16;47.43
5879;BME280;2965;42.640;23.370;2023-02-22T16:07:31;94244.34;;;19.75;46.12
5879;BME280;2965;42.640;23.370;2023-02-22T16:09:57;94248.09;;;20.01;44.62
5879;BME280;2965;42.640;23.370;2023-02-22T16:12:26;94250.44;;;19.98;45.10
5879;BME280;2965;42.640;23.370;2023-02-22T16:14:52;94253.59;;;19.56;41.07
5879;BME280;2965;42.640;23.370;2023-02-22T16:17:24;94252.38;;;19.08;43.13
5879;BME280;2965;42.640;23.370;2023-02-22T16:19:58;94260.22;;;19.36;50.37
5879;BME280;2965;42.640;23.370;2023-02-22T16:22:33;94254.50;;;19.45;47.00
5879;BME280;2965;42.640;23.370;2023-02-22T16:32:45;94267.50;;;17.29;44.65
5879;BME280;2965;42.640;23.370;2023-02-22T16:35:11;94269.09;;;17.07;45.25
5879;BME280;2965;42.640;23.370;2023-02-22T16:37:47;94272.16;;;16.38;47.17
5879;BME280;2965;42.640;23.370;2023-02-22T16:40:26;94271.16;;;16.21;47.51
5879;BME280;2965;42.640;23.370;2023-02-22T16:43:06;94270.16;;;15.49;49.49
5879;BME280;2965;42.640;23.370;2023-02-22T16:45:31;94277.03;;;15.31;49.36
5879;BME280;2965;42.640;23.370;2023-02-22T16:48:00;94269.22;;;15.00;50.66
5879;BME280;2965;42.640;23.370;2023-02-22T16:50:29;94279.97;;;14.73;51.68
5879;BME280;2965;42.640;23.370;2023-02-22T16:52:54;94271.66;;;14.45;53.12
5879;BME280;2965;42.640;23.370;2023-02-22T16:55:23;94279.78;;;14.36;52.98
5879;BME280;2965;42.640;23.370;2023-02-22T16:57:49;94280.22;;;14.33;54.06
5879;BME280;2965;42.640;23.370;2023-02-22T17:00:19;94277.38;;;14.03;54.07
5879;BME280;2965;42.640;23.370;2023-02-22T17:02:46;94285.66;;;13.94;55.99
5879;BME280;2965;42.640;23.370;2023-02-22T17:05:14;94290.34;;;13.92;56.07
5879;BME280;2965;42.640;23.370;2023-02-22T17:07:40;94293.84;;;13.79;56.84
5879;BME280;2965;42.640;23.370;2023-02-22T17:10:07;94295.34;;;13.55;58.04
5879;BME280;2965;42.640;23.370;2023-02-22T17:12:38;94300.00;;;13.40;58.79
5879;BME280;2965;42.640;23.370;2023-02-22T17:15:14;94299.59;;;13.43;58.51
5879;BME280;2965;42.640;23.370;2023-02-22T17:17:40;94296.19;;;13.35;59.50
5879;BME280;2965;42.640;23.370;2023-02-22T17:20:06;94301.63;;;13.41;58.77
5879;BME280;2965;42.640;23.370;2023-02-22T17:22:35;94301.81;;;13.46;59.13
5879;BME280;2965;42.640;23.370;2023-02-22T17:25:01;94303.63;;;13.45;59.72
5879;BME280;2965;42.640;23.370;2023-02-22T17:27:27;94303.25;;;13.42;59.56
5879;BME280;2965;42.640;23.370;2023-02-22T17:29:53;94310.50;;;13.40;59.70
5879;BME280;2965;42.640;23.370;2023-02-22T17:32:18;94313.16;;;13.33;59.96
5879;BME280;2965;42.640;23.370;2023-02-22T17:34:44;94313.16;;;13.40;60.03
5879;BME280;2965;42.640;23.370;2023-02-22T17:37:09;94310.13;;;13.43;60.15
5879;BME280;2965;42.640;23.370;2023-02-22T17:39:34;94312.13;;;13.14;61.17
5879;BME280;2965;42.640;23.370;2023-02-22T17:42:00;94313.34;;;13.05;61.76
5879;BME280;2965;42.640;23.370;2023-02-22T17:44:25;94314.97;;;13.12;61.29
5879;BME280;2965;42.640;23.370;2023-02-22T17:46:51;94314.16;;;13.12;61.33
5879;BME280;2965;42.640;23.370;2023-02-22T17:49:17;94313.75;;;13.08;61.76
5879;BME280;2965;42.640;23.370;2023-02-22T17:51:42;94314.75;;;13.01;61.53
5879;BME280;2965;42.640;23.370;2023-02-22T17:54:14;94315.38;;;12.90;62.47
5879;BME280;2965;42.640;23.370;2023-02-22T17:56:39;94307.31;;;12.78;63.36
5879;BME280;2965;42.640;23.370;2023-02-22T17:59:06;94320.22;;;12.86;63.20
5879;BME280;2965;42.640;23.370;2023-02-22T18:01:33;94308.31;;;12.97;63.04
5879;BME280;2965;42.640;23.370;2023-02-22T18:04:00;94314.16;;;12.79;63.01
5879;BME280;2965;42.640;23.370;2023-02-22T18:06:28;94310.91;;;12.70;64.08
5879;BME280;2965;42.640;23.370;2023-02-22T18:08:55;94312.97;;;12.81;63.24
5879;BME280;2965;42.640;23.370;2023-02-22T18:11:23;94306.09;;;12.94;62.65
5879;BME280;2965;42.640;23.370;2023-02-22T18:13:54;94312.13;;;12.87;63.20
5879;BME280;2965;42.640;23.370;2023-02-22T18:16:20;94312.97;;;12.95;62.24
5879;BME280;2965;42.640;23.370;2023-02-22T18:18:46;94310.94;;;12.97;62.19
5879;BME280;2965;42.640;23.370;2023-02-22T18:21:12;94310.94;;;13.03;62.06
5879;BME280;2965;42.640;23.370;2023-02-22T18:23:40;94314.56;;;13.09;62.02
5879;BME280;2965;42.640;23.370;2023-02-22T18:26:05;94322.44;;;13.09;61.98
5879;BME280;2965;42.640;23.370;2023-02-22T18:28:31;94318.19;;;13.01;62.38
5879;BME280;2965;42.640;23.370;2023-02-22T18:30:56;94316.19;;;12.97;63.02
5879;BME280;2965;42.640;23.370;2023-02-22T18:33:23;94312.97;;;12.95;63.13
5879;BME280;2965;42.640;23.370;2023-02-22T18:35:49;94318.59;;;12.78;63.56
5879;BME280;2965;42.640;23.370;2023-02-22T18:38:20;94318.22;;;12.81;62.99
5879;BME280;2965;42.640;23.370;2023-02-22T18:41:05;94313.97;;;12.80;63.34
5879;BME280;2965;42.640;23.370;2023-02-22T18:43:32;94320.63;;;12.76;63.40
5879;BME280;2965;42.640;23.370;2023-02-22T18:46:11;94319.03;;;12.75;63.51
5879;BME280;2965;42.640;23.370;2023-02-22T18:48:37;94314.56;;;12.82;63.72
5879;BME280;2965;42.640;23.370;2023-02-22T18:51:05;94317.41;;;12.81;63.32
5879;BME280;2965;42.640;23.370;2023-02-22T18:53:31;94320.25;;;12.79;63.40
5879;BME280;2965;42.640;23.370;2023-02-22T18:56:02;94316.19;;;12.77;63.75
5879;BME280;2965;42.640;23.370;2023-02-22T18:58:28;94320.25;;;12.79;63.84
5879;BME280;2965;42.640;23.370;2023-02-22T19:00:57;94319.81;;;12.82;63.67
5879;BME280;2965;42.640;23.370;2023-02-22T19:03:24;94318.19;;;12.75;63.58
5879;BME280;2965;42.640;23.370;2023-02-22T19:05:49;94318.81;;;12.63;64.12
5879;BME280;2965;42.640;23.370;2023-02-22T19:08:15;94319.38;;;12.46;65.26
5879;BME280;2965;42.640;23.370;2023-02-22T19:10:40;94315.16;;;12.45;64.99
5879;BME280;2965;42.640;23.370;2023-02-22T19:13:06;94319.75;;;12.29;66.19
5879;BME280;2965;42.640;23.370;2023-02-22T19:15:36;94331.06;;;12.36;66.68
5879;BME280;2965;42.640;23.370;2023-02-22T19:18:02;94324.41;;;12.27;65.62
5879;BME280;2965;42.640;23.370;2023-02-22T19:20:27;94323.56;;;12.20;65.71
5879;BME280;2965;42.640;23.370;2023-02-22T19:23:00;94323.31;;;12.02;66.23
5879;BME280;2965;42.640;23.370;2023-02-22T19:25:26;94332.19;;;12.01;65.91
5879;BME280;2965;42.640;23.370;2023-02-22T19:27:51;94326.94;;;12.01;66.00
5879;BME280;2965;42.640;23.370;2023-02-22T19:30:21;94323.66;;;11.92;66.70
5879;BME280;2965;42.640;23.370;2023-02-22T19:32:46;94336.56;;;11.94;66.58
5879;BME280;2965;42.640;23.370;2023-02-22T19:35:13;94335.19;;;11.98;66.38
5879;BME280;2965;42.640;23.370;2023-02-22T19:37:51;94338.81;;;11.97;66.50
5879;BME280;2965;42.640;23.370;2023-02-22T19:40:18;94342.66;;;12.01;66.00
5879;BME280;2965;42.640;23.370;2023-02-22T19:42:48;94339.41;;;11.99;66.18
5879;BME280;2965;42.640;23.370;2023-02-22T19:45:14;94344.22;;;11.95;65.84
5879;BME280;2965;42.640;23.370;2023-02-22T19:47:40;94334.97;;;11.93;66.08
5879;BME280;2965;42.640;23.370;2023-02-22T19:50:05;94349.91;;;11.99;66.12
5879;BME280;2965;42.640;23.370;2023-02-22T19:52:31;94346.25;;;11.86;66.08
5879;BME280;2965;42.640;23.370;2023-02-22T19:54:57;94343.78;;;11.85;66.25
5879;BME280;2965;42.640;23.370;2023-02-22T19:57:23;94353.91;;;11.88;66.14
5879;BME280;2965;42.640;23.370;2023-02-22T19:59:49;94351.47;;;11.86;66.05
5879;BME280;2965;42.640;23.370;2023-02-22T20:02:14;94353.81;;;11.81;66.37
5879;BME280;2965;42.640;23.370;2023-02-22T20:04:40;94344.13;;;11.75;66.32
5879;BME280;2965;42.640;23.370;2023-02-22T20:07:05;94354.59;;;11.75;66.39
5879;BME280;2965;42.640;23.370;2023-02-22T20:09:31;94359.03;;;11.75;66.90
5879;BME280;2965;42.640;23.370;2023-02-22T20:12:07;94356.22;;;11.76;66.35
5879;BME280;2965;42.640;23.370;2023-02-22T20:14:33;94364.06;;;11.76;66.70
5879;BME280;2965;42.640;23.370;2023-02-22T20:16:59;94365.88;;;11.76;66.79
5879;BME280;2965;42.640;23.370;2023-02-22T20:19:26;94371.50;;;11.66;66.66
5879;BME280;2965;42.640;23.370;2023-02-22T20:21:52;94359.78;;;11.62;67.15
5879;BME280;2965;42.640;23.370;2023-02-22T20:24:21;94365.53;;;11.51;68.21
5879;BME280;2965;42.640;23.370;2023-02-22T20:26:48;94370.97;;;11.49;67.88
5879;BME280;2965;42.640;23.370;2023-02-22T20:29:14;94366.44;;;11.30;69.69
5879;BME280;2965;42.640;23.370;2023-02-22T20:31:41;94362.75;;;11.24;70.38
5879;BME280;2965;42.640;23.370;2023-02-22T20:34:07;94372.38;;;11.17;71.38
5879;BME280;2965;42.640;23.370;2023-02-22T20:36:37;94367.88;;;11.11;71.96
5879;BME280;2965;42.640;23.370;2023-02-22T20:39:04;94370.84;;;11.01;72.40
5879;BME280;2965;42.640;23.370;2023-02-22T20:41:33;94372.88;;;11.06;73.56
5879;BME280;2965;42.640;23.370;2023-02-22T20:44:00;94372.41;;;10.74;73.41
5879;BME280;2965;42.640;23.370;2023-02-22T20:46:31;94368.78;;;10.75;74.11